sensor_id;sensor_type;location;lat;lon;timestamp;P1;durP1;ratioP1;P2;durP2;ratioP2
12363;SDS011;6246;50.826;4.712;2023-06-22T00:00:40;1.83;;;1.73;;
12363;SDS011;6246;50.826;4.712;2023-06-22T00:03:07;1.75;;;1.65;;
12363;SDS011;6246;50.826;4.712;2023-06-22T00:05:33;1.60;;;1.50;;
12363;SDS011;6246;50.826;4.712;2023-06-22T00:08:02;1.73;;;1.63;;
12363;SDS011;6246;50.826;4.712;2023-06-22T00:10:28;2.03;;;1.83;;
12363;SDS011;6246;50.826;4.712;2023-06-22T00:12:54;1.60;;;1.50;;
12363;SDS011;6246;50.826;4.712;2023-06-22T00:15:20;1.63;;;1.52;;
12363;SDS011;6246;50.826;4.712;2023-06-22T00:17:46;1.63;;;1.52;;
12363;SDS011;6246;50.826;4.712;2023-06-22T00:20:12;1.77;;;1.67;;
12363;SDS011;6246;50.826;4.712;2023-06-22T00:22:39;1.60;;;1.50;;
12363;SDS011;6246;50.826;4.712;2023-06-22T00:25:06;1.30;;;1.30;;
12363;SDS011;6246;50.826;4.712;2023-06-22T00:27:32;1.70;;;1.60;;
12363;SDS011;6246;50.826;4.712;2023-06-22T00:29:58;1.50;;;1.40;;
12363;SDS011;6246;50.826;4.712;2023-06-22T00:32:24;1.65;;;1.55;;
12363;SDS011;6246;50.826;4.712;2023-06-22T00:34:50;1.50;;;1.40;;
12363;SDS011;6246;50.826;4.712;2023-06-22T00:37:17;2.05;;;1.70;;
12363;SDS011;6246;50.826;4.712;2023-06-22T00:39:43;1.50;;;1.40;;
12363;SDS011;6246;50.826;4.712;2023-06-22T00:42:09;1.48;;;1.38;;
12363;SDS011;6246;50.826;4.712;2023-06-22T00:44:36;1.73;;;1.63;;
12363;SDS011;6246;50.826;4.712;2023-06-22T00:47:02;2.30;;;2.15;;
12363;SDS011;6246;50.826;4.712;2023-06-22T00:49:28;1.95;;;1.85;;
12363;SDS011;6246;50.826;4.712;2023-06-22T00:51:55;2.45;;;1.40;;
12363;SDS011;6246;50.826;4.712;2023-06-22T00:54:21;1.45;;;1.35;;
12363;SDS011;6246;50.826;4.712;2023-06-22T00:56:50;2.22;;;1.88;;
12363;SDS011;6246;50.826;4.712;2023-06-22T00:59:17;1.63;;;1.52;;
12363;SDS011;6246;50.826;4.712;2023-06-22T01:01:44;1.70;;;1.60;;
12363;SDS011;6246;50.826;4.712;2023-06-22T01:04:10;1.80;;;1.70;;
12363;SDS011;6246;50.826;4.712;2023-06-22T01:06:38;1.52;;;1.42;;
12363;SDS011;6246;50.826;4.712;2023-06-22T01:09:17;1.60;;;1.50;;
12363;SDS011;6246;50.826;4.712;2023-06-22T01:11:45;1.55;;;1.45;;
12363;SDS011;6246;50.826;4.712;2023-06-22T01:14:15;1.73;;;1.63;;
12363;SDS011;6246;50.826;4.712;2023-06-22T01:16:44;1.55;;;1.30;;
12363;SDS011;6246;50.826;4.712;2023-06-22T01:21:55;2.00;;;1.90;;
12363;SDS011;6246;50.826;4.712;2023-06-22T01:24:30;1.95;;;1.85;;
12363;SDS011;6246;50.826;4.712;2023-06-22T01:27:13;1.85;;;1.75;;
12363;SDS011;6246;50.826;4.712;2023-06-22T01:29:46;1.20;;;1.20;;
12363;SDS011;6246;50.826;4.712;2023-06-22T01:32:13;1.73;;;1.63;;
12363;SDS011;6246;50.826;4.712;2023-06-22T01:34:40;1.70;;;1.60;;
12363;SDS011;6246;50.826;4.712;2023-06-22T01:37:06;2.03;;;1.92;;
12363;SDS011;6246;50.826;4.712;2023-06-22T01:39:32;2.13;;;1.58;;
12363;SDS011;6246;50.826;4.712;2023-06-22T01:41:59;1.95;;;1.85;;
12363;SDS011;6246;50.826;4.712;2023-06-22T01:44:25;1.90;;;1.80;;
12363;SDS011;6246;50.826;4.712;2023-06-22T01:46:52;1.65;;;1.55;;
12363;SDS011;6246;50.826;4.712;2023-06-22T01:49:18;1.83;;;1.73;;
12363;SDS011;6246;50.826;4.712;2023-06-22T01:51:44;1.80;;;1.70;;
12363;SDS011;6246;50.826;4.712;2023-06-22T01:54:10;1.60;;;1.50;;
12363;SDS011;6246;50.826;4.712;2023-06-22T01:56:36;1.60;;;1.50;;
12363;SDS011;6246;50.826;4.712;2023-06-22T01:59:09;2.00;;;1.90;;
12363;SDS011;6246;50.826;4.712;2023-06-22T02:01:41;1.50;;;1.40;;
12363;SDS011;6246;50.826;4.712;2023-06-22T02:04:20;1.77;;;1.67;;
12363;SDS011;6246;50.826;4.712;2023-06-22T02:06:47;1.95;;;1.85;;
12363;SDS011;6246;50.826;4.712;2023-06-22T02:09:17;1.30;;;1.30;;
12363;SDS011;6246;50.826;4.712;2023-06-22T02:11:45;1.80;;;1.70;;
12363;SDS011;6246;50.826;4.712;2023-06-22T02:14:13;1.73;;;1.63;;
12363;SDS011;6246;50.826;4.712;2023-06-22T02:16:40;1.60;;;1.50;;
12363;SDS011;6246;50.826;4.712;2023-06-22T02:19:06;2.58;;;1.90;;
12363;SDS011;6246;50.826;4.712;2023-06-22T02:21:33;1.83;;;1.73;;
12363;SDS011;6246;50.826;4.712;2023-06-22T02:23:59;1.77;;;1.67;;
12363;SDS011;6246;50.826;4.712;2023-06-22T02:26:25;1.83;;;1.73;;
12363;SDS011;6246;50.826;4.712;2023-06-22T02:28:52;1.80;;;1.70;;
12363;SDS011;6246;50.826;4.712;2023-06-22T02:31:18;1.63;;;1.52;;
12363;SDS011;6246;50.826;4.712;2023-06-22T02:33:45;1.98;;;1.88;;
12363;SDS011;6246;50.826;4.712;2023-06-22T02:36:11;1.88;;;1.77;;
12363;SDS011;6246;50.826;4.712;2023-06-22T02:38:38;1.85;;;1.73;;
12363;SDS011;6246;50.826;4.712;2023-06-22T02:41:04;2.13;;;1.63;;
12363;SDS011;6246;50.826;4.712;2023-06-22T02:43:31;1.55;;;1.45;;
12363;SDS011;6246;50.826;4.712;2023-06-22T02:45:57;1.95;;;1.50;;
12363;SDS011;6246;50.826;4.712;2023-06-22T02:48:23;1.85;;;1.73;;
12363;SDS011;6246;50.826;4.712;2023-06-22T02:50:49;1.85;;;1.75;;
12363;SDS011;6246;50.826;4.712;2023-06-22T02:53:15;1.65;;;1.58;;
12363;SDS011;6246;50.826;4.712;2023-06-22T02:55:42;1.80;;;1.70;;
12363;SDS011;6246;50.826;4.712;2023-06-22T02:58:08;1.75;;;1.45;;
12363;SDS011;6246;50.826;4.712;2023-06-22T03:00:33;1.67;;;1.58;;
12363;SDS011;6246;50.826;4.712;2023-06-22T03:02:59;1.42;;;1.33;;
12363;SDS011;6246;50.826;4.712;2023-06-22T03:05:25;1.95;;;1.75;;
12363;SDS011;6246;50.826;4.712;2023-06-22T03:07:51;1.70;;;1.60;;
12363;SDS011;6246;50.826;4.712;2023-06-22T03:10:17;2.10;;;2.00;;
12363;SDS011;6246;50.826;4.712;2023-06-22T03:12:43;1.77;;;1.67;;
12363;SDS011;6246;50.826;4.712;2023-06-22T03:15:11;1.60;;;1.50;;
12363;SDS011;6246;50.826;4.712;2023-06-22T03:17:37;1.52;;;1.42;;
12363;SDS011;6246;50.826;4.712;2023-06-22T03:20:05;1.45;;;1.35;;
12363;SDS011;6246;50.826;4.712;2023-06-22T03:22:40;1.77;;;1.67;;
12363;SDS011;6246;50.826;4.712;2023-06-22T03:25:07;1.67;;;1.58;;
12363;SDS011;6246;50.826;4.712;2023-06-22T03:27:37;1.95;;;1.85;;
12363;SDS011;6246;50.826;4.712;2023-06-22T03:30:04;1.60;;;1.50;;
12363;SDS011;6246;50.826;4.712;2023-06-22T03:32:30;1.80;;;1.70;;
12363;SDS011;6246;50.826;4.712;2023-06-22T03:34:56;1.67;;;1.58;;
12363;SDS011;6246;50.826;4.712;2023-06-22T03:37:24;1.77;;;1.67;;
12363;SDS011;6246;50.826;4.712;2023-06-22T03:39:50;1.60;;;1.50;;
12363;SDS011;6246;50.826;4.712;2023-06-22T03:42:16;1.80;;;1.70;;
12363;SDS011;6246;50.826;4.712;2023-06-22T03:44:42;1.92;;;1.83;;
12363;SDS011;6246;50.826;4.712;2023-06-22T03:47:08;1.60;;;1.50;;
12363;SDS011;6246;50.826;4.712;2023-06-22T03:49:34;1.83;;;1.73;;
12363;SDS011;6246;50.826;4.712;2023-06-22T03:52:01;1.30;;;1.30;;
12363;SDS011;6246;50.826;4.712;2023-06-22T03:54:28;1.70;;;1.60;;
12363;SDS011;6246;50.826;4.712;2023-06-22T03:56:54;1.73;;;1.63;;
12363;SDS011;6246;50.826;4.712;2023-06-22T03:59:20;1.92;;;1.83;;
12363;SDS011;6246;50.826;4.712;2023-06-22T04:01:46;1.55;;;1.45;;
12363;SDS011;6246;50.826;4.712;2023-06-22T04:04:12;2.15;;;1.75;;
12363;SDS011;6246;50.826;4.712;2023-06-22T04:06:38;1.52;;;1.42;;
12363;SDS011;6246;50.826;4.712;2023-06-22T04:09:05;1.63;;;1.52;;
12363;SDS011;6246;50.826;4.712;2023-06-22T04:11:31;1.63;;;1.52;;
12363;SDS011;6246;50.826;4.712;2023-06-22T04:13:57;1.80;;;1.70;;
12363;SDS011;6246;50.826;4.712;2023-06-22T04:16:23;2.00;;;1.90;;
12363;SDS011;6246;50.826;4.712;2023-06-22T04:18:49;1.70;;;1.60;;
12363;SDS011;6246;50.826;4.712;2023-06-22T04:21:15;1.73;;;1.58;;
12363;SDS011;6246;50.826;4.712;2023-06-22T04:23:41;1.98;;;1.88;;
12363;SDS011;6246;50.826;4.712;2023-06-22T04:26:08;1.60;;;1.50;;
12363;SDS011;6246;50.826;4.712;2023-06-22T04:28:34;1.80;;;1.70;;
12363;SDS011;6246;50.826;4.712;2023-06-22T04:31:01;1.83;;;1.73;;
12363;SDS011;6246;50.826;4.712;2023-06-22T04:33:27;1.80;;;1.70;;
12363;SDS011;6246;50.826;4.712;2023-06-22T04:35:54;2.00;;;1.90;;
12363;SDS011;6246;50.826;4.712;2023-06-22T04:38:26;1.75;;;1.65;;
12363;SDS011;6246;50.826;4.712;2023-06-22T04:40:52;2.28;;;1.73;;
12363;SDS011;6246;50.826;4.712;2023-06-22T04:43:18;2.67;;;1.92;;
12363;SDS011;6246;50.826;4.712;2023-06-22T04:45:44;1.60;;;1.50;;
12363;SDS011;6246;50.826;4.712;2023-06-22T04:48:10;1.63;;;1.52;;
12363;SDS011;6246;50.826;4.712;2023-06-22T04:50:41;1.88;;;1.77;;
12363;SDS011;6246;50.826;4.712;2023-06-22T04:53:07;1.73;;;1.63;;
12363;SDS011;6246;50.826;4.712;2023-06-22T04:55:34;1.58;;;1.48;;
12363;SDS011;6246;50.826;4.712;2023-06-22T04:58:02;2.25;;;2.08;;
12363;SDS011;6246;50.826;4.712;2023-06-22T05:00:31;1.55;;;1.45;;
12363;SDS011;6246;50.826;4.712;2023-06-22T05:03:01;1.60;;;1.50;;
12363;SDS011;6246;50.826;4.712;2023-06-22T05:05:28;1.85;;;1.70;;
12363;SDS011;6246;50.826;4.712;2023-06-22T05:07:56;1.55;;;1.45;;
12363;SDS011;6246;50.826;4.712;2023-06-22T05:10:25;1.85;;;1.75;;
12363;SDS011;6246;50.826;4.712;2023-06-22T05:12:51;1.80;;;1.70;;
12363;SDS011;6246;50.826;4.712;2023-06-22T05:15:17;1.90;;;1.80;;
12363;SDS011;6246;50.826;4.712;2023-06-22T05:17:51;1.70;;;1.58;;
12363;SDS011;6246;50.826;4.712;2023-06-22T05:20:17;1.58;;;1.48;;
12363;SDS011;6246;50.826;4.712;2023-06-22T05:22:43;1.73;;;1.63;;
12363;SDS011;6246;50.826;4.712;2023-06-22T05:25:10;3.45;;;1.98;;
12363;SDS011;6246;50.826;4.712;2023-06-22T05:27:36;1.60;;;1.50;;
12363;SDS011;6246;50.826;4.712;2023-06-22T05:30:07;1.52;;;1.40;;
12363;SDS011;6246;50.826;4.712;2023-06-22T05:32:34;2.00;;;1.90;;
12363;SDS011;6246;50.826;4.712;2023-06-22T05:35:00;2.38;;;2.10;;
12363;SDS011;6246;50.826;4.712;2023-06-22T05:37:26;1.55;;;1.45;;
12363;SDS011;6246;50.826;4.712;2023-06-22T05:39:52;1.92;;;1.83;;
12363;SDS011;6246;50.826;4.712;2023-06-22T05:42:19;2.10;;;1.98;;
12363;SDS011;6246;50.826;4.712;2023-06-22T05:44:45;1.70;;;1.60;;
12363;SDS011;6246;50.826;4.712;2023-06-22T05:47:12;2.20;;;2.03;;
12363;SDS011;6246;50.826;4.712;2023-06-22T05:49:38;2.58;;;1.58;;
12363;SDS011;6246;50.826;4.712;2023-06-22T05:52:04;2.10;;;2.00;;
12363;SDS011;6246;50.826;4.712;2023-06-22T05:54:30;1.48;;;1.38;;
12363;SDS011;6246;50.826;4.712;2023-06-22T05:56:56;1.48;;;1.40;;
12363;SDS011;6246;50.826;4.712;2023-06-22T05:59:22;2.00;;;1.90;;
12363;SDS011;6246;50.826;4.712;2023-06-22T06:01:48;1.98;;;1.88;;
12363;SDS011;6246;50.826;4.712;2023-06-22T06:04:18;2.30;;;2.10;;
12363;SDS011;6246;50.826;4.712;2023-06-22T06:06:44;1.98;;;1.88;;
12363;SDS011;6246;50.826;4.712;2023-06-22T06:09:11;2.35;;;2.20;;
12363;SDS011;6246;50.826;4.712;2023-06-22T06:11:37;2.47;;;1.55;;
12363;SDS011;6246;50.826;4.712;2023-06-22T06:14:03;1.80;;;1.70;;
12363;SDS011;6246;50.826;4.712;2023-06-22T06:16:29;1.90;;;1.80;;
12363;SDS011;6246;50.826;4.712;2023-06-22T06:18:55;2.03;;;1.92;;
12363;SDS011;6246;50.826;4.712;2023-06-22T06:21:23;1.83;;;1.70;;
12363;SDS011;6246;50.826;4.712;2023-06-22T06:23:49;1.92;;;1.83;;
12363;SDS011;6246;50.826;4.712;2023-06-22T06:26:15;1.77;;;1.67;;
12363;SDS011;6246;50.826;4.712;2023-06-22T06:28:42;1.70;;;1.60;;
12363;SDS011;6246;50.826;4.712;2023-06-22T06:31:08;1.95;;;1.77;;
12363;SDS011;6246;50.826;4.712;2023-06-22T06:33:34;1.98;;;1.88;;
12363;SDS011;6246;50.826;4.712;2023-06-22T06:36:00;2.30;;;1.88;;
12363;SDS011;6246;50.826;4.712;2023-06-22T06:38:28;2.20;;;2.10;;
12363;SDS011;6246;50.826;4.712;2023-06-22T06:40:54;1.70;;;1.60;;
12363;SDS011;6246;50.826;4.712;2023-06-22T06:43:20;1.92;;;1.83;;
12363;SDS011;6246;50.826;4.712;2023-06-22T06:45:46;2.75;;;2.03;;
12363;SDS011;6246;50.826;4.712;2023-06-22T06:48:12;2.17;;;2.00;;
12363;SDS011;6246;50.826;4.712;2023-06-22T06:50:38;1.80;;;1.70;;
12363;SDS011;6246;50.826;4.712;2023-06-22T06:53:04;2.17;;;2.05;;
12363;SDS011;6246;50.826;4.712;2023-06-22T06:55:31;2.22;;;2.00;;
12363;SDS011;6246;50.826;4.712;2023-06-22T06:57:58;2.67;;;2.25;;
12363;SDS011;6246;50.826;4.712;2023-06-22T07:00:24;1.90;;;1.80;;
12363;SDS011;6246;50.826;4.712;2023-06-22T07:02:50;1.83;;;1.73;;
12363;SDS011;6246;50.826;4.712;2023-06-22T07:05:17;1.75;;;1.65;;
12363;SDS011;6246;50.826;4.712;2023-06-22T07:07:43;2.03;;;1.83;;
12363;SDS011;6246;50.826;4.712;2023-06-22T07:10:09;2.35;;;2.25;;
12363;SDS011;6246;50.826;4.712;2023-06-22T07:12:35;2.65;;;2.08;;
12363;SDS011;6246;50.826;4.712;2023-06-22T07:15:02;2.10;;;1.90;;
12363;SDS011;6246;50.826;4.712;2023-06-22T07:17:28;2.03;;;1.92;;
12363;SDS011;6246;50.826;4.712;2023-06-22T07:19:55;1.85;;;1.70;;
12363;SDS011;6246;50.826;4.712;2023-06-22T07:22:21;1.83;;;1.73;;
12363;SDS011;6246;50.826;4.712;2023-06-22T07:24:47;2.90;;;2.20;;
12363;SDS011;6246;50.826;4.712;2023-06-22T07:27:14;2.30;;;2.10;;
12363;SDS011;6246;50.826;4.712;2023-06-22T07:29:43;1.90;;;1.80;;
12363;SDS011;6246;50.826;4.712;2023-06-22T07:32:09;2.13;;;2.00;;
12363;SDS011;6246;50.826;4.712;2023-06-22T07:34:35;2.30;;;2.20;;
12363;SDS011;6246;50.826;4.712;2023-06-22T07:37:01;3.00;;;2.28;;
12363;SDS011;6246;50.826;4.712;2023-06-22T07:39:27;2.28;;;2.17;;
12363;SDS011;6246;50.826;4.712;2023-06-22T07:41:53;3.40;;;2.03;;
12363;SDS011;6246;50.826;4.712;2023-06-22T07:44:20;2.47;;;2.03;;
12363;SDS011;6246;50.826;4.712;2023-06-22T07:46:46;2.38;;;1.98;;
12363;SDS011;6246;50.826;4.712;2023-06-22T07:49:12;2.03;;;1.90;;
12363;SDS011;6246;50.826;4.712;2023-06-22T07:51:38;2.00;;;1.90;;
12363;SDS011;6246;50.826;4.712;2023-06-22T07:54:04;2.05;;;1.95;;
12363;SDS011;6246;50.826;4.712;2023-06-22T07:56:30;2.60;;;2.38;;
12363;SDS011;6246;50.826;4.712;2023-06-22T07:58:56;2.08;;;1.95;;
12363;SDS011;6246;50.826;4.712;2023-06-22T08:01:24;2.28;;;2.08;;
12363;SDS011;6246;50.826;4.712;2023-06-22T08:03:50;1.92;;;1.83;;
12363;SDS011;6246;50.826;4.712;2023-06-22T08:06:16;2.25;;;2.05;;
12363;SDS011;6246;50.826;4.712;2023-06-22T08:08:42;2.20;;;2.00;;
12363;SDS011;6246;50.826;4.712;2023-06-22T08:11:08;1.80;;;1.67;;
12363;SDS011;6246;50.826;4.712;2023-06-22T08:13:34;2.72;;;2.53;;
12363;SDS011;6246;50.826;4.712;2023-06-22T08:16:01;1.80;;;1.70;;
12363;SDS011;6246;50.826;4.712;2023-06-22T08:18:27;2.03;;;1.90;;
12363;SDS011;6246;50.826;4.712;2023-06-22T08:20:53;1.88;;;1.77;;
12363;SDS011;6246;50.826;4.712;2023-06-22T08:23:19;2.40;;;2.25;;
12363;SDS011;6246;50.826;4.712;2023-06-22T08:25:45;2.47;;;2.33;;
12363;SDS011;6246;50.826;4.712;2023-06-22T08:28:11;1.70;;;1.55;;
12363;SDS011;6246;50.826;4.712;2023-06-22T08:30:38;2.20;;;2.00;;
12363;SDS011;6246;50.826;4.712;2023-06-22T08:33:04;2.08;;;1.98;;
12363;SDS011;6246;50.826;4.712;2023-06-22T08:35:30;2.67;;;2.30;;
12363;SDS011;6246;50.826;4.712;2023-06-22T08:37:56;2.30;;;2.10;;
12363;SDS011;6246;50.826;4.712;2023-06-22T08:40:23;2.80;;;1.70;;
12363;SDS011;6246;50.826;4.712;2023-06-22T08:42:49;1.92;;;1.83;;
12363;SDS011;6246;50.826;4.712;2023-06-22T08:45:15;1.90;;;1.80;;
12363;SDS011;6246;50.826;4.712;2023-06-22T08:47:42;2.00;;;1.90;;
12363;SDS011;6246;50.826;4.712;2023-06-22T08:50:08;2.40;;;1.90;;
12363;SDS011;6246;50.826;4.712;2023-06-22T08:52:34;1.85;;;1.75;;
12363;SDS011;6246;50.826;4.712;2023-06-22T08:55:00;1.88;;;1.77;;
12363;SDS011;6246;50.826;4.712;2023-06-22T08:57:27;1.92;;;1.83;;
12363;SDS011;6246;50.826;4.712;2023-06-22T08:59:53;1.90;;;1.80;;
12363;SDS011;6246;50.826;4.712;2023-06-22T09:02:23;2.55;;;2.00;;
12363;SDS011;6246;50.826;4.712;2023-06-22T09:04:49;2.28;;;2.00;;
12363;SDS011;6246;50.826;4.712;2023-06-22T09:07:20;2.03;;;1.92;;
12363;SDS011;6246;50.826;4.712;2023-06-22T09:09:47;2.58;;;2.38;;
12363;SDS011;6246;50.826;4.712;2023-06-22T09:12:13;2.10;;;2.00;;
12363;SDS011;6246;50.826;4.712;2023-06-22T09:14:39;2.47;;;2.22;;
12363;SDS011;6246;50.826;4.712;2023-06-22T09:17:05;1.70;;;1.60;;
12363;SDS011;6246;50.826;4.712;2023-06-22T09:19:32;2.00;;;1.90;;
12363;SDS011;6246;50.826;4.712;2023-06-22T09:21:58;2.03;;;1.92;;
12363;SDS011;6246;50.826;4.712;2023-06-22T09:24:25;2.30;;;2.13;;
12363;SDS011;6246;50.826;4.712;2023-06-22T09:26:51;2.33;;;2.13;;
12363;SDS011;6246;50.826;4.712;2023-06-22T09:29:17;2.08;;;1.90;;
12363;SDS011;6246;50.826;4.712;2023-06-22T09:31:43;2.80;;;1.92;;
12363;SDS011;6246;50.826;4.712;2023-06-22T09:34:09;2.13;;;1.92;;
12363;SDS011;6246;50.826;4.712;2023-06-22T09:36:35;2.10;;;2.00;;
12363;SDS011;6246;50.826;4.712;2023-06-22T09:39:02;2.17;;;2.03;;
12363;SDS011;6246;50.826;4.712;2023-06-22T09:41:31;2.40;;;2.20;;
12363;SDS011;6246;50.826;4.712;2023-06-22T09:43:57;1.80;;;1.70;;
12363;SDS011;6246;50.826;4.712;2023-06-22T09:46:23;2.40;;;2.20;;
12363;SDS011;6246;50.826;4.712;2023-06-22T09:48:52;1.95;;;1.83;;
12363;SDS011;6246;50.826;4.712;2023-06-22T09:51:19;1.85;;;1.75;;
12363;SDS011;6246;50.826;4.712;2023-06-22T09:53:46;2.47;;;2.28;;
12363;SDS011;6246;50.826;4.712;2023-06-22T09:56:12;2.22;;;2.13;;
12363;SDS011;6246;50.826;4.712;2023-06-22T09:58:43;2.58;;;2.38;;
12363;SDS011;6246;50.826;4.712;2023-06-22T10:01:09;2.50;;;2.35;;
12363;SDS011;6246;50.826;4.712;2023-06-22T10:03:35;2.40;;;2.20;;
12363;SDS011;6246;50.826;4.712;2023-06-22T10:06:01;2.20;;;2.10;;
12363;SDS011;6246;50.826;4.712;2023-06-22T10:08:27;1.98;;;1.88;;
12363;SDS011;6246;50.826;4.712;2023-06-22T10:10:53;2.45;;;2.25;;
12363;SDS011;6246;50.826;4.712;2023-06-22T10:13:19;2.42;;;2.22;;
12363;SDS011;6246;50.826;4.712;2023-06-22T10:15:45;3.58;;;2.50;;
12363;SDS011;6246;50.826;4.712;2023-06-22T10:18:15;2.50;;;2.30;;
12363;SDS011;6246;50.826;4.712;2023-06-22T10:20:41;2.35;;;2.20;;
12363;SDS011;6246;50.826;4.712;2023-06-22T10:23:07;2.17;;;2.00;;
12363;SDS011;6246;50.826;4.712;2023-06-22T10:25:33;2.25;;;2.15;;
12363;SDS011;6246;50.826;4.712;2023-06-22T10:27:59;2.08;;;1.98;;
12363;SDS011;6246;50.826;4.712;2023-06-22T10:30:25;2.40;;;2.20;;
12363;SDS011;6246;50.826;4.712;2023-06-22T10:32:51;2.20;;;2.10;;
12363;SDS011;6246;50.826;4.712;2023-06-22T10:35:17;2.35;;;2.22;;
12363;SDS011;6246;50.826;4.712;2023-06-22T10:37:44;1.60;;;1.50;;
12363;SDS011;6246;50.826;4.712;2023-06-22T10:40:13;2.30;;;2.10;;
12363;SDS011;6246;50.826;4.712;2023-06-22T10:42:40;2.38;;;2.28;;
12363;SDS011;6246;50.826;4.712;2023-06-22T10:45:06;2.25;;;2.15;;
12363;SDS011;6246;50.826;4.712;2023-06-22T10:47:33;2.20;;;2.05;;
12363;SDS011;6246;50.826;4.712;2023-06-22T10:49:59;2.47;;;2.17;;
12363;SDS011;6246;50.826;4.712;2023-06-22T10:52:25;2.90;;;2.42;;
12363;SDS011;6246;50.826;4.712;2023-06-22T10:54:51;3.58;;;2.30;;
12363;SDS011;6246;50.826;4.712;2023-06-22T10:57:17;3.17;;;2.00;;
12363;SDS011;6246;50.826;4.712;2023-06-22T10:59:43;2.42;;;2.25;;
12363;SDS011;6246;50.826;4.712;2023-06-22T11:02:09;6.45;;;1.83;;
12363;SDS011;6246;50.826;4.712;2023-06-22T11:04:35;2.08;;;1.98;;
12363;SDS011;6246;50.826;4.712;2023-06-22T11:07:01;2.80;;;2.60;;
12363;SDS011;6246;50.826;4.712;2023-06-22T11:09:27;2.95;;;2.45;;
12363;SDS011;6246;50.826;4.712;2023-06-22T11:11:56;2.33;;;2.08;;
12363;SDS011;6246;50.826;4.712;2023-06-22T11:14:23;2.65;;;2.33;;
12363;SDS011;6246;50.826;4.712;2023-06-22T11:16:50;2.70;;;2.40;;
12363;SDS011;6246;50.826;4.712;2023-06-22T11:19:16;2.30;;;2.10;;
12363;SDS011;6246;50.826;4.712;2023-06-22T11:21:42;2.25;;;2.05;;
12363;SDS011;6246;50.826;4.712;2023-06-22T11:24:08;2.90;;;2.70;;
12363;SDS011;6246;50.826;4.712;2023-06-22T11:26:34;3.03;;;2.50;;
12363;SDS011;6246;50.826;4.712;2023-06-22T11:29:00;2.45;;;2.25;;
12363;SDS011;6246;50.826;4.712;2023-06-22T11:31:30;2.17;;;2.08;;
12363;SDS011;6246;50.826;4.712;2023-06-22T11:33:56;2.35;;;2.15;;
12363;SDS011;6246;50.826;4.712;2023-06-22T11:36:22;2.47;;;2.28;;
12363;SDS011;6246;50.826;4.712;2023-06-22T11:38:48;2.40;;;2.20;;
12363;SDS011;6246;50.826;4.712;2023-06-22T11:41:14;2.70;;;2.25;;
12363;SDS011;6246;50.826;4.712;2023-06-22T11:43:40;2.50;;;2.40;;
12363;SDS011;6246;50.826;4.712;2023-06-22T11:46:06;2.78;;;2.58;;
12363;SDS011;6246;50.826;4.712;2023-06-22T11:48:32;2.60;;;2.40;;
12363;SDS011;6246;50.826;4.712;2023-06-22T11:50:58;2.80;;;2.60;;
12363;SDS011;6246;50.826;4.712;2023-06-22T11:53:25;2.45;;;2.25;;
12363;SDS011;6246;50.826;4.712;2023-06-22T11:55:51;2.60;;;2.40;;
12363;SDS011;6246;50.826;4.712;2023-06-22T11:58:21;2.88;;;2.60;;
12363;SDS011;6246;50.826;4.712;2023-06-22T12:00:48;2.78;;;2.53;;
12363;SDS011;6246;50.826;4.712;2023-06-22T12:03:15;2.47;;;2.28;;
12363;SDS011;6246;50.826;4.712;2023-06-22T12:05:45;2.83;;;2.63;;
12363;SDS011;6246;50.826;4.712;2023-06-22T12:08:11;2.25;;;2.05;;
12363;SDS011;6246;50.826;4.712;2023-06-22T12:10:38;2.72;;;2.53;;
12363;SDS011;6246;50.826;4.712;2023-06-22T12:13:04;3.45;;;3.03;;
12363;SDS011;6246;50.826;4.712;2023-06-22T12:15:30;2.70;;;2.50;;
12363;SDS011;6246;50.826;4.712;2023-06-22T12:17:56;3.03;;;2.83;;
12363;SDS011;6246;50.826;4.712;2023-06-22T12:20:22;3.47;;;2.65;;
12363;SDS011;6246;50.826;4.712;2023-06-22T12:22:48;3.05;;;2.78;;
12363;SDS011;6246;50.826;4.712;2023-06-22T12:25:16;2.47;;;2.28;;
12363;SDS011;6246;50.826;4.712;2023-06-22T12:27:42;3.28;;;2.60;;
12363;SDS011;6246;50.826;4.712;2023-06-22T12:30:08;2.70;;;2.50;;
12363;SDS011;6246;50.826;4.712;2023-06-22T12:32:35;2.55;;;2.40;;
12363;SDS011;6246;50.826;4.712;2023-06-22T12:35:01;2.22;;;2.13;;
12363;SDS011;6246;50.826;4.712;2023-06-22T12:37:27;2.70;;;2.50;;
12363;SDS011;6246;50.826;4.712;2023-06-22T12:39:54;2.53;;;2.33;;
12363;SDS011;6246;50.826;4.712;2023-06-22T12:42:20;3.20;;;3.00;;
12363;SDS011;6246;50.826;4.712;2023-06-22T12:44:46;2.80;;;2.60;;
12363;SDS011;6246;50.826;4.712;2023-06-22T12:47:12;2.55;;;2.35;;
12363;SDS011;6246;50.826;4.712;2023-06-22T12:49:38;2.65;;;2.45;;
12363;SDS011;6246;50.826;4.712;2023-06-22T12:52:13;3.42;;;2.63;;
12363;SDS011;6246;50.826;4.712;2023-06-22T12:54:39;2.85;;;2.45;;
12363;SDS011;6246;50.826;4.712;2023-06-22T12:57:05;2.50;;;2.30;;
12363;SDS011;6246;50.826;4.712;2023-06-22T12:59:31;2.28;;;2.13;;
12363;SDS011;6246;50.826;4.712;2023-06-22T13:01:57;2.90;;;2.38;;
12363;SDS011;6246;50.826;4.712;2023-06-22T13:04:23;2.45;;;2.35;;
12363;SDS011;6246;50.826;4.712;2023-06-22T13:06:49;2.85;;;2.65;;
12363;SDS011;6246;50.826;4.712;2023-06-22T13:09:17;2.95;;;2.75;;
12363;SDS011;6246;50.826;4.712;2023-06-22T13:11:43;3.30;;;2.72;;
12363;SDS011;6246;50.826;4.712;2023-06-22T13:14:09;2.75;;;2.55;;
12363;SDS011;6246;50.826;4.712;2023-06-22T13:16:35;3.28;;;2.78;;
12363;SDS011;6246;50.826;4.712;2023-06-22T13:19:01;3.47;;;3.00;;
12363;SDS011;6246;50.826;4.712;2023-06-22T13:21:27;2.97;;;2.78;;
12363;SDS011;6246;50.826;4.712;2023-06-22T13:23:53;2.47;;;2.38;;
12363;SDS011;6246;50.826;4.712;2023-06-22T13:26:20;2.65;;;2.45;;
12363;SDS011;6246;50.826;4.712;2023-06-22T13:28:47;2.55;;;2.35;;
12363;SDS011;6246;50.826;4.712;2023-06-22T13:31:13;3.00;;;2.70;;
12363;SDS011;6246;50.826;4.712;2023-06-22T13:33:39;3.63;;;2.67;;
12363;SDS011;6246;50.826;4.712;2023-06-22T13:36:05;7.45;;;3.10;;
12363;SDS011;6246;50.826;4.712;2023-06-22T13:38:32;2.92;;;2.63;;
12363;SDS011;6246;50.826;4.712;2023-06-22T13:40:58;3.45;;;3.15;;
12363;SDS011;6246;50.826;4.712;2023-06-22T13:43:26;2.70;;;2.50;;
12363;SDS011;6246;50.826;4.712;2023-06-22T13:45:52;3.80;;;3.10;;
12363;SDS011;6246;50.826;4.712;2023-06-22T13:48:18;2.72;;;2.53;;
12363;SDS011;6246;50.826;4.712;2023-06-22T13:50:44;2.70;;;2.50;;
12363;SDS011;6246;50.826;4.712;2023-06-22T13:53:14;3.33;;;2.88;;
12363;SDS011;6246;50.826;4.712;2023-06-22T13:55:40;3.00;;;2.80;;
12363;SDS011;6246;50.826;4.712;2023-06-22T13:58:06;3.08;;;2.78;;
12363;SDS011;6246;50.826;4.712;2023-06-22T14:00:32;2.95;;;2.75;;
12363;SDS011;6246;50.826;4.712;2023-06-22T14:02:58;3.05;;;2.85;;
12363;SDS011;6246;50.826;4.712;2023-06-22T14:05:24;2.65;;;2.45;;
12363;SDS011;6246;50.826;4.712;2023-06-22T14:07:50;2.70;;;2.50;;
12363;SDS011;6246;50.826;4.712;2023-06-22T14:10:17;3.80;;;2.70;;
12363;SDS011;6246;50.826;4.712;2023-06-22T14:12:43;3.20;;;2.90;;
12363;SDS011;6246;50.826;4.712;2023-06-22T14:15:09;3.08;;;2.78;;
12363;SDS011;6246;50.826;4.712;2023-06-22T14:17:36;6.30;;;2.83;;
12363;SDS011;6246;50.826;4.712;2023-06-22T14:20:02;2.90;;;2.70;;
12363;SDS011;6246;50.826;4.712;2023-06-22T14:22:28;2.97;;;2.78;;
12363;SDS011;6246;50.826;4.712;2023-06-22T14:24:54;2.92;;;2.72;;
12363;SDS011;6246;50.826;4.712;2023-06-22T14:27:23;2.58;;;2.47;;
12363;SDS011;6246;50.826;4.712;2023-06-22T14:29:49;3.38;;;3.08;;
12363;SDS011;6246;50.826;4.712;2023-06-22T14:32:15;2.97;;;2.67;;
12363;SDS011;6246;50.826;4.712;2023-06-22T14:34:41;2.88;;;2.67;;
12363;SDS011;6246;50.826;4.712;2023-06-22T14:37:08;3.00;;;2.70;;
12363;SDS011;6246;50.826;4.712;2023-06-22T14:39:38;3.22;;;2.92;;
12363;SDS011;6246;50.826;4.712;2023-06-22T14:42:04;2.58;;;2.42;;
12363;SDS011;6246;50.826;4.712;2023-06-22T14:44:30;3.15;;;2.90;;
12363;SDS011;6246;50.826;4.712;2023-06-22T14:46:57;3.00;;;2.80;;
12363;SDS011;6246;50.826;4.712;2023-06-22T14:49:23;4.05;;;3.00;;
12363;SDS011;6246;50.826;4.712;2023-06-22T14:51:49;3.45;;;3.15;;
12363;SDS011;6246;50.826;4.712;2023-06-22T14:54:15;3.03;;;2.83;;
12363;SDS011;6246;50.826;4.712;2023-06-22T14:56:41;3.03;;;2.67;;
12363;SDS011;6246;50.826;4.712;2023-06-22T14:59:08;2.65;;;2.45;;